Time;durP1;ratioP1;P1;durP2;ratioP2;P2;SDS_P1;SDS_P2;PMS_P1;PMS_P2;Temp;Humidity;BMP_temperature;BMP_pressure;BME280_temperature;BME280_humidity;BME280_pressure;Samples;Min_cycle;Max_cycle;Signal;HPM_P1;HPM_P2
2021/01/22 00:00:29;;;;;;;3.28;1.45;;;16.70;63.50;;;;;;4946143;28;20118;-61
2021/01/22 00:02:54;;;;;;;6.43;1.85;;;16.60;64.20;;;;;;4938573;29;20031;-60
2021/01/22 00:05:20;;;;;;;6.18;1.92;;;16.50;63.60;;;;;;4955898;28;20047;-61
2021/01/22 00:11:07;;;;;;;6.63;2.80;;;16.60;63.10;;;;;;4969572;28;20121;-60
2021/01/22 00:13:33;;;;;;;4.75;1.63;;;16.70;63.40;;;;;;4971590;28;20098;-61
2021/01/22 00:15:58;;;;;;;5.63;1.80;;;16.70;62.80;;;;;;4964289;28;20078;-60
2021/01/22 00:18:24;;;;;;;14.82;12.35;;;16.70;62.80;;;;;;4970702;28;20034;-62
2021/01/22 00:20:49;;;;;;;11.20;7.03;;;16.80;63.60;;;;;;4965864;28;20031;-60
2021/01/22 00:23:15;;;;;;;7.45;3.20;;;16.80;62.50;;;;;;4952425;28;20390;-61
2021/01/22 00:25:40;;;;;;;7.90;2.85;;;16.80;62.30;;;;;;4959195;28;20058;-61
2021/01/22 00:28:06;;;;;;;5.65;2.10;;;16.80;62.30;;;;;;4972470;28;20064;-60
2021/01/22 00:30:32;;;;;;;7.50;2.22;;;16.80;62.30;;;;;;4969538;28;20100;-59
2021/01/22 00:32:57;;;;;;;4.45;1.90;;;16.80;62.10;;;;;;4943713;29;20457;-60
2021/01/22 00:35:23;;;;;;;23.77;12.18;;;16.80;62.00;;;;;;4971187;28;20031;-59
2021/01/22 00:37:48;;;;;;;12.20;6.88;;;16.80;62.40;;;;;;4958289;28;20503;-62
2021/01/22 00:40:14;;;;;;;30.35;20.02;;;16.80;62.20;;;;;;4957177;28;20035;-60
2021/01/22 00:42:39;;;;;;;11.95;7.10;;;16.80;61.60;;;;;;4965919;28;20038;-61
2021/01/22 00:48:27;;;;;;;8.95;4.03;;;16.90;61.50;;;;;;4955885;28;20676;-60
2021/01/22 00:50:53;;;;;;;8.60;3.40;;;16.80;62.00;;;;;;4955867;29;20039;-60
2021/01/22 00:53:19;;;;;;;6.35;2.80;;;16.90;61.90;;;;;;4955889;29;20055;-59
2021/01/22 00:55:44;;;;;;;6.15;2.63;;;16.90;61.70;;;;;;4970912;28;20034;-60
2021/01/22 00:58:10;;;;;;;7.07;2.72;;;16.90;62.00;;;;;;4975029;28;20023;-62
2021/01/22 01:00:35;;;;;;;6.65;2.58;;;16.90;61.40;;;;;;4965695;28;20393;-60
2021/01/22 01:03:01;;;;;;;6.65;2.80;;;17.00;61.20;;;;;;4959277;28;20031;-59
2021/01/22 01:05:26;;;;;;;7.45;2.97;;;16.90;61.70;;;;;;4972026;28;20031;-61
2021/01/22 01:07:52;;;;;;;6.05;2.30;;;16.90;61.40;;;;;;4974034;28;20038;-62
2021/01/22 01:10:17;;;;;;;6.22;2.30;;;17.00;61.20;;;;;;4959240;28;20050;-60
2021/01/22 01:12:43;;;;;;;6.32;1.95;;;16.90;61.50;;;;;;4954379;29;20734;-59
2021/01/22 01:15:09;;;;;;;5.63;2.10;;;16.90;61.50;;;;;;4942816;28;20113;-60
2021/01/22 01:17:35;;;;;;;7.45;2.10;;;16.80;61.60;;;;;;4956257;28;20057;-60
2021/01/22 01:20:02;;;;;;;5.10;2.25;;;16.90;61.20;;;;;;4957751;28;20508;-60
2021/01/22 01:22:27;;;;;;;11.23;6.80;;;16.90;61.40;;;;;;4973390;28;20058;-60
2021/01/22 01:24:53;;;;;;;8.07;4.15;;;17.00;61.60;;;;;;4965089;28;20035;-59
2021/01/22 01:27:18;;;;;;;6.22;2.40;;;16.90;61.30;;;;;;4938174;29;20027;-60
2021/01/22 01:29:44;;;;;;;21.98;14.32;;;16.80;61.60;;;;;;4963908;28;20519;-63
2021/01/22 01:32:09;;;;;;;10.13;4.50;;;16.80;62.60;;;;;;4974192;28;20030;-59
2021/01/22 01:34:35;;;;;;;11.05;6.10;;;16.70;62.10;;;;;;4942694;29;20144;-60
2021/01/22 01:37:00;;;;;;;22.08;14.15;;;16.80;61.50;;;;;;4954700;28;20537;-61
2021/01/22 01:39:26;;;;;;;14.15;6.82;;;16.90;62.20;;;;;;4940633;29;20061;-60
2021/01/22 01:41:51;;;;;;;9.05;4.47;;;16.90;61.50;;;;;;4955554;28;20642;-60
2021/01/22 01:44:17;;;;;;;8.73;4.05;;;16.90;61.20;;;;;;4937847;29;20114;-61
2021/01/22 01:46:42;;;;;;;9.02;3.60;;;16.80;61.30;;;;;;4963911;28;20037;-61
2021/01/22 01:49:08;;;;;;;7.05;3.40;;;16.80;61.20;;;;;;4972413;28;20111;-59
2021/01/22 01:51:34;;;;;;;7.40;2.83;;;16.80;61.30;;;;;;4969014;28;20031;-59
2021/01/22 01:53:59;;;;;;;5.85;2.42;;;16.80;61.10;;;;;;4938065;29;20027;-61
2021/01/22 01:56:26;;;;;;;41.88;30.65;;;16.80;61.20;;;;;;4937558;29;20019;-60
2021/01/22 01:58:51;;;;;;;20.00;13.38;;;16.80;61.50;;;;;;4939347;28;20027;-61
2021/01/22 02:01:18;;;;;;;27.15;17.05;;;16.80;61.30;;;;;;4950057;28;20039;-60
2021/01/22 02:03:44;;;;;;;14.00;8.43;;;16.90;61.20;;;;;;4972532;28;20046;-62
2021/01/22 02:06:10;;;;;;;8.55;4.20;;;16.90;60.80;;;;;;4954615;29;20031;-63
2021/01/22 02:08:37;;;;;;;12.07;6.13;;;16.80;61.00;;;;;;4980681;28;20058;-62
2021/01/22 02:11:06;;;;;;;9.85;5.28;;;16.80;60.90;;;;;;4989182;28;20034;-62
2021/01/22 02:13:32;;;;;;;15.43;9.45;;;16.80;60.90;;;;;;4988901;28;20086;-60
2021/01/22 02:15:59;;;;;;;10.88;6.63;;;16.90;60.80;;;;;;4961441;28;20403;-60
2021/01/22 02:18:25;;;;;;;8.77;5.07;;;16.90;60.80;;;;;;4972041;28;20023;-59
2021/01/22 02:21:21;;;;;;;9.27;4.20;;;16.80;61.10;;;;;;4973560;28;20027;-60
2021/01/22 02:23:47;;;;;;;7.70;3.88;;;16.90;60.70;;;;;;4966120;28;20019;-60
2021/01/22 02:26:27;;;;;;;7.93;3.33;;;16.90;60.60;;;;;;4956373;28;20066;-60
2021/01/22 02:29:00;;;;;;;8.48;3.55;;;16.80;61.00;;;;;;4937144;28;20034;-60
2021/01/22 02:31:28;;;;;;;7.03;3.90;;;16.90;60.90;;;;;;4955358;28;20042;-60
2021/01/22 02:33:58;;;;;;;6.28;3.00;;;16.90;60.50;;;;;;4958704;28;20027;-60
2021/01/22 02:36:24;;;;;;;6.22;3.25;;;16.90;60.50;;;;;;4937034;28;20114;-60
2021/01/22 02:38:53;;;;;;;105.75;94.68;;;16.90;61.10;;;;;;4936489;28;20023;-59
2021/01/22 02:41:20;;;;;;;129.45;110.88;;;16.80;61.00;;;;;;4958687;28;20057;-60
2021/01/22 02:43:50;;;;;;;67.53;58.30;;;16.80;60.70;;;;;;4971327;28;20054;-59
2021/01/22 02:46:16;;;;;;;41.65;35.03;;;16.80;60.60;;;;;;4963330;28;20380;-61
2021/01/22 02:48:44;;;;;;;31.63;26.77;;;16.80;60.70;;;;;;4940746;29;20055;-60
2021/01/22 02:51:13;;;;;;;28.38;22.60;;;16.90;60.70;;;;;;4958451;28;20068;-62
2021/01/22 02:53:39;;;;;;;22.67;18.42;;;16.80;60.70;;;;;;4971997;28;20068;-60
2021/01/22 02:56:13;;;;;;;21.83;16.83;;;16.80;60.80;;;;;;4972148;28;20030;-60
2021/01/22 02:58:51;;;;;;;16.52;11.40;;;16.80;60.80;;;;;;4940804;29;20477;-60
2021/01/22 03:01:20;;;;;;;18.10;13.32;;;16.80;61.20;;;;;;4944982;28;20518;-60
2021/01/22 03:04:04;;;;;;;15.02;11.27;;;16.80;60.70;;;;;;4958037;28;20113;-59
2021/01/22 03:06:37;;;;;;;13.63;10.30;;;16.70;61.70;;;;;;4953423;29;20388;-62
2021/01/22 03:09:03;;;;;;;12.85;8.95;;;16.70;60.80;;;;;;4953399;29;20097;-61
2021/01/22 03:11:32;;;;;;;14.07;9.02;;;16.70;60.70;;;;;;4968868;28;20037;-60
2021/01/22 03:14:00;;;;;;;18.25;15.38;;;16.80;60.70;;;;;;4954149;28;20565;-59
2021/01/22 03:16:26;;;;;;;47.58;42.88;;;16.80;60.50;;;;;;4965110;28;20066;-60
2021/01/22 03:19:03;;;;;;;35.17;31.58;;;16.80;60.40;;;;;;4962195;28;20034;-60
2021/01/22 03:21:28;;;;;;;35.22;31.55;;;16.90;60.10;;;;;;4962331;28;20488;-59
2021/01/22 03:23:54;;;;;;;20.48;16.75;;;16.90;59.90;;;;;;4947575;28;20066;-64
2021/01/22 03:26:20;;;;;;;15.77;12.15;;;16.90;59.70;;;;;;4970522;28;20102;-63
2021/01/22 03:28:46;;;;;;;13.73;10.68;;;17.00;59.50;;;;;;4972139;28;20117;-59
2021/01/22 03:31:11;;;;;;;11.63;9.27;;;17.00;59.50;;;;;;4970511;28;20034;-60
2021/01/22 03:37:00;;;;;;;9.93;7.22;;;17.00;59.50;;;;;;4957106;28;20044;-61
2021/01/22 03:42:48;;;;;;;9.02;6.35;;;17.00;59.20;;;;;;4952291;28;20026;-60
2021/01/22 03:45:15;;;;;;;9.45;6.00;;;17.00;59.10;;;;;;4952463;29;20035;-59
2021/01/22 03:47:41;;;;;;;8.50;5.50;;;17.00;59.00;;;;;;4968236;28;20026;-60
2021/01/22 03:50:08;;;;;;;7.78;5.15;;;17.10;58.80;;;;;;4971841;28;20539;-62
2021/01/22 03:52:33;;;;;;;9.63;4.93;;;17.00;58.80;;;;;;4955607;28;20102;-59
2021/01/22 03:54:59;;;;;;;8.35;4.57;;;17.00;58.90;;;;;;4952463;29;20234;-61
2021/01/22 03:57:24;;;;;;;7.60;4.30;;;17.00;59.00;;;;;;4953464;28;20027;-61
2021/01/22 04:03:12;;;;;;;7.35;4.00;;;16.90;58.90;;;;;;4951383;29;20030;-59
2021/01/22 04:05:38;;;;;;;6.65;3.83;;;16.90;58.90;;;;;;4935395;29;20035;-59
2021/01/22 04:08:05;;;;;;;5.68;3.53;;;16.90;58.90;;;;;;4936261;28;20416;-62
2021/01/22 04:10:30;;;;;;;7.10;3.28;;;16.90;58.90;;;;;;4970147;28;20170;-60
2021/01/22 04:12:57;;;;;;;6.07;3.38;;;16.80;59.20;;;;;;4952373;29;20515;-60
2021/01/22 04:15:22;;;;;;;7.30;3.40;;;16.80;59.30;;;;;;4961424;28;20031;-60
2021/01/22 04:17:48;;;;;;;5.93;3.05;;;16.80;59.20;;;;;;4960011;28;20019;-59
2021/01/22 04:20:20;;;;;;;5.93;3.30;;;16.80;59.20;;;;;;4955895;28;20039;-62
2021/01/22 04:22:46;;;;;;;6.22;3.22;;;16.80;59.20;;;;;;4970186;28;20400;-59
2021/01/22 04:25:12;;;;;;;7.20;3.40;;;16.80;59.10;;;;;;4971804;28;20483;-60
2021/01/22 04:27:37;;;;;;;6.50;3.28;;;16.80;59.10;;;;;;4971898;28;20023;-61
2021/01/22 04:30:03;;;;;;;5.97;2.78;;;16.80;59.20;;;;;;4949099;28;20042;-60
2021/01/22 04:32:29;;;;;;;5.88;2.60;;;16.90;59.20;;;;;;4938648;29;20043;-60
2021/01/22 04:34:54;;;;;;;5.65;2.60;;;16.90;59.00;;;;;;4960980;28;20036;-60
2021/01/22 04:37:20;;;;;;;5.68;2.67;;;16.80;59.10;;;;;;4982692;28;20081;-60
2021/01/22 04:39:45;;;;;;;7.53;3.15;;;16.80;59.10;;;;;;4991075;28;20103;-63
2021/01/22 04:42:11;;;;;;;5.88;2.50;;;16.80;59.10;;;;;;4964916;28;20117;-60
2021/01/22 04:44:37;;;;;;;5.03;2.40;;;16.80;59.20;;;;;;4968214;28;20098;-60
2021/01/22 04:47:03;;;;;;;5.13;2.22;;;16.90;59.10;;;;;;4971712;28;20045;-60
2021/01/22 04:49:28;;;;;;;6.43;3.00;;;16.90;59.10;;;;;;4970011;28;20027;-60
2021/01/22 04:51:56;;;;;;;5.88;2.88;;;16.80;59.10;;;;;;4966380;28;20031;-60
2021/01/22 04:54:36;;;;;;;5.13;2.40;;;16.80;59.10;;;;;;4962310;28;20030;-61
2021/01/22 04:57:04;;;;;;;5.30;2.40;;;16.80;59.00;;;;;;4935888;29;20039;-60
2021/01/22 04:59:44;;;;;;;5.72;2.40;;;16.80;59.00;;;;;;4951916;29;20460;-59
2021/01/22 05:02:10;;;;;;;4.10;2.30;;;16.80;59.00;;;;;;4951729;29;20035;-62
2021/01/22 05:04:38;;;;;;;9.18;6.38;;;16.80;59.00;;;;;;4964994;28;20058;-62
2021/01/22 05:07:04;;;;;;;6.65;3.30;;;16.80;59.10;;;;;;4951820;29;20038;-61
2021/01/22 05:09:30;;;;;;;4.85;2.50;;;16.80;59.10;;;;;;4952835;28;20027;-62
2021/01/22 05:11:55;;;;;;;5.95;2.38;;;16.80;59.10;;;;;;4952059;28;20023;-60
2021/01/22 05:14:21;;;;;;;4.80;2.35;;;16.80;59.10;;;;;;4955902;28;20031;-60
2021/01/22 05:17:06;;;;;;;4.20;2.10;;;16.70;59.10;;;;;;4955820;28;20027;-60
2021/01/22 05:19:33;;;;;;;3.95;1.92;;;16.70;59.00;;;;;;4972952;28;20046;-59
2021/01/22 05:22:00;;;;;;;3.40;1.70;;;16.70;59.20;;;;;;4956698;28;20035;-61
2021/01/22 05:24:28;;;;;;;3.90;1.65;;;16.70;59.20;;;;;;4970468;28;20038;-59
2021/01/22 05:27:07;;;;;;;4.93;2.00;;;16.70;59.10;;;;;;4956106;28;20015;-61
2021/01/22 05:29:38;;;;;;;3.80;1.70;;;16.70;59.10;;;;;;4953039;28;20134;-62
2021/01/22 05:32:26;;;;;;;14.77;7.05;;;16.70;59.30;;;;;;4955109;28;20027;-60
2021/01/22 05:34:53;;;;;;;30.33;21.40;;;16.70;59.60;;;;;;4973103;28;20019;-59
2021/01/22 05:37:19;;;;;;;25.60;17.33;;;16.70;59.30;;;;;;4937637;29;20422;-59
2021/01/22 05:39:44;;;;;;;18.83;12.38;;;16.70;58.90;;;;;;4937571;29;20031;-61
2021/01/22 05:42:12;;;;;;;12.35;7.53;;;16.70;59.20;;;;;;4954505;28;20504;-60
2021/01/22 05:44:51;;;;;;;10.95;5.50;;;16.70;59.30;;;;;;4941921;28;20489;-60
2021/01/22 05:47:17;;;;;;;9.32;3.88;;;16.80;59.50;;;;;;4954668;29;20035;-61
2021/01/22 05:49:58;;;;;;;7.28;3.78;;;16.80;59.50;;;;;;4955510;28;20043;-60
2021/01/22 05:52:25;;;;;;;10.18;3.20;;;16.80;59.60;;;;;;4942791;28;20022;-61
2021/01/22 05:54:51;;;;;;;6.47;2.92;;;16.80;59.70;;;;;;4966931;28;20647;-61
2021/01/22 05:57:17;;;;;;;8.23;2.97;;;16.80;59.70;;;;;;4972218;28;20111;-59
2021/01/22 05:59:42;;;;;;;5.68;2.47;;;16.80;59.70;;;;;;4973223;28;20523;-60
2021/01/22 06:02:28;;;;;;;6.60;2.42;;;16.90;59.80;;;;;;4958935;28;20372;-62
2021/01/22 06:05:13;;;;;;;5.55;2.20;;;16.90;59.70;;;;;;4963624;28;20062;-60
2021/01/22 06:07:46;;;;;;;6.40;2.42;;;16.90;59.70;;;;;;4958496;28;20034;-60
2021/01/22 06:10:22;;;;;;;9.25;2.47;;;16.90;59.80;;;;;;4961713;28;20660;-60
2021/01/22 06:12:54;;;;;;;13.32;2.40;;;17.00;60.00;;;;;;4971797;28;20641;-60
2021/01/22 06:15:22;;;;;;;11.05;2.30;;;17.00;60.00;;;;;;4973503;28;20033;-60
2021/01/22 06:17:53;;;;;;;12.50;2.70;;;17.00;60.00;;;;;;4972393;28;20102;-60
2021/01/22 06:20:23;;;;;;;15.45;2.45;;;17.00;60.30;;;;;;4953278;28;20090;-63
2021/01/22 06:23:06;;;;;;;10.77;2.10;;;17.10;60.20;;;;;;4940657;28;20050;-59
2021/01/22 06:25:32;;;;;;;10.40;2.22;;;17.10;60.10;;;;;;4960577;28;20110;-61
2021/01/22 06:28:01;;;;;;;18.48;2.67;;;17.10;60.40;;;;;;4936799;29;20476;-61
2021/01/22 06:30:28;;;;;;;9.60;1.75;;;17.10;60.20;;;;;;4953878;28;20023;-62
2021/01/22 06:32:55;;;;;;;10.13;2.35;;;17.10;61.10;;;;;;4939499;28;20034;-63
2021/01/22 06:35:23;;;;;;;9.52;2.10;;;17.10;61.50;;;;;;4954590;28;20041;-61
2021/01/22 06:37:50;;;;;;;7.80;1.95;;;17.00;60.70;;;;;;4953887;29;20024;-61
2021/01/22 06:40:18;;;;;;;10.15;1.83;;;17.00;60.40;;;;;;4954900;28;20031;-60
2021/01/22 06:42:45;;;;;;;8.45;2.03;;;17.00;60.30;;;;;;4955296;28;20027;-60
2021/01/22 06:45:11;;;;;;;9.20;1.77;;;17.00;60.40;;;;;;4953377;28;20539;-60
2021/01/22 06:47:37;;;;;;;7.97;1.70;;;17.00;60.50;;;;;;4972683;28;20077;-61
2021/01/22 06:50:02;;;;;;;5.95;1.65;;;17.00;60.40;;;;;;4971439;28;20022;-60
2021/01/22 06:52:28;;;;;;;7.72;1.77;;;17.00;60.30;;;;;;4972618;28;20536;-61
2021/01/22 06:54:57;;;;;;;5.28;1.70;;;17.00;60.30;;;;;;4958143;28;20038;-62
2021/01/22 06:57:23;;;;;;;6.88;1.42;;;17.10;60.20;;;;;;4953407;29;20127;-61
2021/01/22 06:59:49;;;;;;;7.50;1.50;;;17.00;60.10;;;;;;4937266;29;20118;-60
2021/01/22 07:02:32;;;;;;;6.28;1.55;;;17.00;60.20;;;;;;4967184;28;20107;-60
2021/01/22 07:04:58;;;;;;;4.05;1.73;;;17.00;60.20;;;;;;4953879;28;20027;-60
2021/01/22 07:07:49;;;;;;;5.80;1.50;;;17.00;60.20;;;;;;4959025;28;20038;-62
2021/01/22 07:10:14;;;;;;;6.25;1.60;;;17.00;60.20;;;;;;4957866;28;20031;-61
2021/01/22 07:12:47;;;;;;;5.03;2.00;;;17.00;60.50;;;;;;4934072;28;20081;-62
2021/01/22 07:15:21;;;;;;;6.90;1.83;;;17.00;60.20;;;;;;4957631;28;20033;-60
2021/01/22 07:17:59;;;;;;;5.47;1.70;;;17.00;60.20;;;;;;4950776;28;20383;-60
2021/01/22 07:20:25;;;;;;;6.63;1.83;;;17.10;60.20;;;;;;4958459;28;20034;-61
2021/01/22 07:22:59;;;;;;;8.48;2.08;;;17.10;60.30;;;;;;4942218;28;20022;-60
2021/01/22 07:25:37;;;;;;;9.20;2.40;;;17.00;60.30;;;;;;4960034;28;20046;-63
2021/01/22 07:28:12;;;;;;;7.68;2.08;;;17.00;60.40;;;;;;4956545;28;20578;-60
2021/01/22 07:30:41;;;;;;;12.50;2.05;;;17.00;60.80;;;;;;4970326;28;20097;-60
2021/01/22 07:33:25;;;;;;;6.95;1.50;;;17.00;60.70;;;;;;4960563;28;20074;-61
2021/01/22 07:36:10;;;;;;;5.60;1.60;;;17.00;60.80;;;;;;4962737;28;20031;-63
2021/01/22 07:38:38;;;;;;;6.03;1.95;;;17.00;60.70;;;;;;4966026;28;20110;-60
2021/01/22 07:41:05;;;;;;;7.20;1.55;;;17.00;60.80;;;;;;4974782;28;20031;-59
2021/01/22 07:43:30;;;;;;;8.27;1.60;;;17.00;60.70;;;;;;4971166;28;20046;-60
2021/01/22 07:46:06;;;;;;;9.02;1.70;;;17.10;60.90;;;;;;4956613;28;20034;-59
2021/01/22 07:48:32;;;;;;;5.88;1.80;;;17.10;61.50;;;;;;4975546;28;20091;-60
2021/01/22 07:50:57;;;;;;;9.32;1.80;;;17.10;61.70;;;;;;4979089;28;20117;-62
2021/01/22 07:53:23;;;;;;;10.23;1.88;;;17.10;61.50;;;;;;4982429;28;20116;-60
2021/01/22 07:55:53;;;;;;;7.53;1.50;;;17.00;61.60;;;;;;4954407;28;20035;-59
2021/01/22 07:58:18;;;;;;;4.78;1.35;;;17.10;61.50;;;;;;4962537;28;20030;-59
2021/01/22 08:00:44;;;;;;;8.70;1.90;;;17.00;61.60;;;;;;4965761;28;20609;-60
2021/01/22 08:03:11;;;;;;;9.95;1.90;;;17.00;61.40;;;;;;4966013;28;20106;-61
2021/01/22 08:05:38;;;;;;;8.68;2.25;;;17.00;61.20;;;;;;4965018;28;20199;-60
2021/01/22 08:08:20;;;;;;;7.68;1.98;;;17.00;60.90;;;;;;4949724;28;20111;-61
2021/01/22 08:10:46;;;;;;;7.05;2.05;;;17.00;60.80;;;;;;4980718;28;20030;-63
2021/01/22 08:13:14;;;;;;;6.45;1.85;;;17.00;60.90;;;;;;4984262;28;20030;-59
2021/01/22 08:15:40;;;;;;;5.80;1.90;;;17.00;60.90;;;;;;4967196;28;20026;-61
2021/01/22 08:18:06;;;;;;;9.43;4.75;;;16.90;61.00;;;;;;4968245;28;20037;-59
2021/01/22 08:20:33;;;;;;;8.30;2.90;;;16.90;60.80;;;;;;4965172;28;20023;-63
2021/01/22 08:22:59;;;;;;;7.63;2.55;;;16.90;60.50;;;;;;4965858;28;20029;-59
2021/01/22 08:25:35;;;;;;;7.05;2.40;;;16.90;60.50;;;;;;4946220;28;20027;-59
2021/01/22 08:28:02;;;;;;;6.65;2.38;;;16.90;60.30;;;;;;4958695;28;20041;-59
2021/01/22 08:30:29;;;;;;;6.40;2.60;;;16.90;60.10;;;;;;4978627;28;20034;-61
2021/01/22 08:32:56;;;;;;;6.47;2.38;;;16.90;59.90;;;;;;4979319;28;20105;-61
2021/01/22 08:35:24;;;;;;;6.38;2.25;;;16.90;60.10;;;;;;4968929;28;20031;-60
2021/01/22 08:37:51;;;;;;;7.10;2.17;;;16.90;59.80;;;;;;4964736;28;20065;-59
2021/01/22 08:40:17;;;;;;;6.40;2.47;;;16.90;59.90;;;;;;4967877;28;20026;-61
2021/01/22 08:43:01;;;;;;;6.50;2.45;;;16.80;59.90;;;;;;4966721;28;20034;-61
2021/01/22 08:45:27;;;;;;;7.90;2.10;;;16.80;59.80;;;;;;4983216;28;20640;-60
2021/01/22 08:47:53;;;;;;;8.85;2.38;;;16.80;59.70;;;;;;4964013;28;20027;-61
2021/01/22 08:50:20;;;;;;;4.78;2.22;;;16.90;59.60;;;;;;4952105;28;20810;-61
2021/01/22 08:52:46;;;;;;;12.35;8.18;;;16.90;59.40;;;;;;4968710;28;20060;-60
2021/01/22 08:55:22;;;;;;;12.63;7.60;;;16.90;59.50;;;;;;4979994;28;20034;-60
2021/01/22 08:58:10;;;;;;;9.40;5.00;;;16.90;59.40;;;;;;4962112;28;20112;-59
2021/01/22 09:00:36;;;;;;;8.95;3.55;;;16.90;59.60;;;;;;4968869;28;20034;-61
2021/01/22 09:03:03;;;;;;;6.88;3.10;;;16.90;59.30;;;;;;4949118;28;20441;-61
2021/01/22 09:05:29;;;;;;;7.90;3.13;;;17.00;59.30;;;;;;4966805;28;20022;-61
2021/01/22 09:08:08;;;;;;;5.68;2.70;;;16.90;59.20;;;;;;4968965;28;20037;-63
2021/01/22 09:10:39;;;;;;;8.20;3.08;;;17.00;59.20;;;;;;4969878;28;20104;-62
2021/01/22 09:13:11;;;;;;;5.45;2.85;;;17.10;59.10;;;;;;4951126;28;20523;-62
2021/01/22 09:15:37;;;;;;;5.07;2.63;;;17.00;59.30;;;;;;4951093;28;20034;-59
2021/01/22 09:18:15;;;;;;;6.53;2.63;;;16.90;59.60;;;;;;4967573;28;20031;-60
2021/01/22 09:20:41;;;;;;;13.50;6.20;;;16.90;59.70;;;;;;4963081;28;21129;-59
2021/01/22 09:23:07;;;;;;;14.48;6.10;;;16.90;59.70;;;;;;4954629;28;20295;-60
2021/01/22 09:25:32;;;;;;;14.63;5.15;;;17.00;60.50;;;;;;4966625;28;20090;-60
2021/01/22 09:27:58;;;;;;;11.40;4.80;;;17.00;61.50;;;;;;4971284;28;20031;-61
2021/01/22 09:30:25;;;;;;;13.57;4.30;;;17.00;60.80;;;;;;4986306;28;20034;-61
2021/01/22 09:32:56;;;;;;;12.93;4.35;;;16.90;60.50;;;;;;5007591;28;20571;-63
2021/01/22 09:35:28;;;;;;;11.73;3.58;;;16.90;60.20;;;;;;4985100;28;20038;-60
2021/01/22 09:37:54;;;;;;;9.50;3.78;;;16.90;60.10;;;;;;4957186;28;20037;-60
2021/01/22 09:40:20;;;;;;;10.20;3.50;;;16.90;60.00;;;;;;4957134;28;20062;-60
2021/01/22 09:42:46;;;;;;;9.60;3.30;;;17.00;59.90;;;;;;4992697;28;20058;-60
2021/01/22 09:45:14;;;;;;;8.55;2.60;;;17.00;59.80;;;;;;4993596;28;20522;-60
2021/01/22 09:47:41;;;;;;;10.07;3.05;;;17.00;59.90;;;;;;4993687;28;20026;-59
2021/01/22 09:50:08;;;;;;;6.57;3.00;;;17.00;59.90;;;;;;4993750;28;20026;-60
2021/01/22 09:52:36;;;;;;;7.40;2.90;;;17.10;59.80;;;;;;4993599;28;20041;-60
2021/01/22 09:55:03;;;;;;;5.53;2.67;;;17.10;59.70;;;;;;4993720;28;20033;-61
2021/01/22 09:57:29;;;;;;;8.18;2.67;;;17.10;59.70;;;;;;4975986;28;20034;-60
2021/01/22 09:59:55;;;;;;;6.30;2.60;;;17.00;59.70;;;;;;4993453;28;20506;-60
2021/01/22 10:02:21;;;;;;;7.82;2.67;;;17.10;59.80;;;;;;4993399;28;20061;-59
2021/01/22 10:04:46;;;;;;;6.88;2.65;;;17.00;59.80;;;;;;4976118;28;20054;-60
2021/01/22 10:07:12;;;;;;;6.63;2.30;;;17.00;60.00;;;;;;4975986;28;20487;-62
2021/01/22 10:09:37;;;;;;;5.20;2.38;;;17.00;59.90;;;;;;4993081;28;20110;-59
2021/01/22 10:12:06;;;;;;;7.90;2.80;;;17.00;60.10;;;;;;4992818;28;20030;-58
2021/01/22 10:14:32;;;;;;;6.38;2.53;;;17.00;60.00;;;;;;4992995;28;20030;-61
2021/01/22 10:16:58;;;;;;;6.55;2.30;;;17.00;60.00;;;;;;4992954;28;20636;-62
2021/01/22 10:19:23;;;;;;;6.35;2.40;;;16.90;59.90;;;;;;4992983;28;20031;-60
2021/01/22 10:21:49;;;;;;;9.07;2.28;;;17.00;59.90;;;;;;4992701;28;20161;-60
2021/01/22 10:24:16;;;;;;;7.07;2.20;;;17.00;59.90;;;;;;4975306;28;20022;-61
2021/01/22 10:26:41;;;;;;;6.32;2.35;;;17.00;59.80;;;;;;4992833;28;20498;-60
2021/01/22 10:29:07;;;;;;;5.75;2.25;;;17.10;59.60;;;;;;4975116;28;20022;-60
2021/01/22 10:31:32;;;;;;;6.03;2.17;;;17.00;59.50;;;;;;4992312;28;20037;-61
2021/01/22 10:33:59;;;;;;;4.55;2.20;;;17.00;60.10;;;;;;4992570;28;20038;-62
2021/01/22 10:36:24;;;;;;;12.48;10.38;;;17.00;59.70;;;;;;4992535;28;20105;-60
2021/01/22 10:38:50;;;;;;;7.15;4.28;;;17.00;59.60;;;;;;4992489;28;20157;-61
2021/01/22 10:41:16;;;;;;;6.10;2.58;;;17.10;59.50;;;;;;4992271;28;20030;-60
2021/01/22 10:43:41;;;;;;;5.28;2.30;;;17.10;59.30;;;;;;4992454;28;20484;-62
2021/01/22 10:46:07;;;;;;;6.35;2.38;;;17.10;59.30;;;;;;4992247;28;20559;-60
2021/01/22 10:48:32;;;;;;;6.25;2.13;;;17.10;59.30;;;;;;4974580;28;20033;-61
2021/01/22 10:50:58;;;;;;;6.97;2.30;;;17.10;59.20;;;;;;4972583;28;20058;-62
2021/01/22 10:53:24;;;;;;;4.97;2.25;;;17.10;59.10;;;;;;4972850;28;20090;-63
2021/01/22 10:55:50;;;;;;;5.32;2.20;;;17.20;59.10;;;;;;4972724;28;20070;-61
2021/01/22 10:58:16;;;;;;;3.85;1.88;;;17.10;59.10;;;;;;4955361;28;20018;-62
2021/01/22 11:00:41;;;;;;;4.35;1.90;;;17.20;59.00;;;;;;4972755;28;20031;-60
2021/01/22 11:03:07;;;;;;;7.57;2.22;;;17.20;59.00;;;;;;4972475;28;20481;-61
2021/01/22 11:05:33;;;;;;;4.80;2.10;;;17.20;58.80;;;;;;4955152;28;20038;-62
2021/01/22 11:07:59;;;;;;;3.85;2.10;;;17.20;59.00;;;;;;4955283;28;20034;-61
2021/01/22 11:10:25;;;;;;;5.53;1.73;;;17.20;59.00;;;;;;4954457;28;20047;-60
2021/01/22 11:12:51;;;;;;;4.70;1.60;;;17.20;59.00;;;;;;4972265;28;20019;-62
2021/01/22 11:15:17;;;;;;;3.17;1.52;;;17.20;59.00;;;;;;4972550;28;20034;-62
2021/01/22 11:17:42;;;;;;;3.35;1.80;;;17.20;59.10;;;;;;4972450;28;20053;-60
2021/01/22 11:20:09;;;;;;;3.78;1.60;;;17.20;59.10;;;;;;4955091;28;20081;-60
2021/01/22 11:22:35;;;;;;;3.17;1.60;;;17.20;59.10;;;;;;4954692;28;20027;-62
2021/01/22 11:25:00;;;;;;;3.80;1.50;;;17.20;59.00;;;;;;4972227;28;20517;-62
2021/01/22 11:27:26;;;;;;;4.75;1.65;;;17.20;59.10;;;;;;4954956;28;20050;-61
2021/01/22 11:29:52;;;;;;;4.13;1.70;;;17.20;59.20;;;;;;4972154;28;20031;-60
2021/01/22 11:32:18;;;;;;;3.50;1.60;;;17.20;59.10;;;;;;4971984;28;20361;-60
2021/01/22 11:34:44;;;;;;;3.10;1.38;;;17.20;59.20;;;;;;4954758;28;20027;-60
2021/01/22 11:37:10;;;;;;;5.20;1.60;;;17.20;59.10;;;;;;4972140;28;20023;-62
2021/01/22 11:39:36;;;;;;;3.70;1.77;;;17.20;59.50;;;;;;4972603;28;20034;-63
2021/01/22 11:42:07;;;;;;;4.25;1.58;;;17.30;59.00;;;;;;4954862;28;20482;-60
2021/01/22 11:44:33;;;;;;;3.35;1.50;;;17.30;59.00;;;;;;4971921;28;20027;-60
2021/01/22 11:46:58;;;;;;;5.05;1.70;;;17.30;59.00;;;;;;4972256;28;20443;-60
2021/01/22 11:49:25;;;;;;;4.05;1.70;;;17.20;59.00;;;;;;4972422;28;20057;-60
2021/01/22 11:51:51;;;;;;;3.38;1.40;;;17.20;59.00;;;;;;4972083;28;20027;-61
2021/01/22 11:54:16;;;;;;;3.05;1.40;;;17.30;59.00;;;;;;4972214;28;20098;-60
2021/01/22 11:56:42;;;;;;;3.50;1.30;;;17.30;59.00;;;;;;4979126;28;20027;-61
2021/01/22 11:59:08;;;;;;;4.00;1.70;;;17.30;59.00;;;;;;4991550;28;20373;-63
2021/01/22 12:01:34;;;;;;;5.65;1.73;;;17.30;59.00;;;;;;4988939;28;20404;-60
2021/01/22 12:04:00;;;;;;;9.85;1.83;;;17.30;59.10;;;;;;4970788;28;20039;-63
2021/01/22 12:06:25;;;;;;;8.23;1.55;;;17.40;59.50;;;;;;4980746;28;20038;-59
2021/01/22 12:08:51;;;;;;;11.50;2.03;;;17.50;59.30;;;;;;4981591;28;20038;-60
2021/01/22 12:11:16;;;;;;;10.63;1.98;;;17.40;59.70;;;;;;4971307;28;20026;-60
2021/01/22 12:13:42;;;;;;;10.25;2.15;;;17.30;59.90;;;;;;4980424;28;20023;-64
2021/01/22 12:16:08;;;;;;;10.98;1.67;;;17.40;60.40;;;;;;4980014;28;20022;-59
2021/01/22 12:18:33;;;;;;;10.10;2.15;;;17.30;60.70;;;;;;4967483;28;20038;-59
2021/01/22 12:20:59;;;;;;;9.98;1.90;;;17.30;60.20;;;;;;4973599;28;20030;-61
2021/01/22 12:23:24;;;;;;;6.72;1.65;;;17.30;60.20;;;;;;4976486;28;20618;-63
2021/01/22 12:25:50;;;;;;;7.82;1.92;;;17.30;60.40;;;;;;4976961;28;20037;-63
2021/01/22 12:28:16;;;;;;;3.83;1.65;;;17.30;60.40;;;;;;4965097;28;20122;-60
2021/01/22 12:30:43;;;;;;;5.22;1.73;;;17.30;60.50;;;;;;4968825;28;20484;-59
2021/01/22 12:33:08;;;;;;;5.65;1.67;;;17.30;60.10;;;;;;4992940;28;20026;-63
2021/01/22 12:35:34;;;;;;;17.00;2.70;;;17.30;59.90;;;;;;4979671;28;20417;-59
2021/01/22 12:38:00;;;;;;;11.23;2.10;;;17.50;58.90;;;;;;4973808;28;20101;-61
2021/01/22 12:40:26;;;;;;;9.23;1.90;;;17.50;59.40;;;;;;4974717;28;20038;-60
2021/01/22 12:42:52;;;;;;;5.72;1.73;;;17.50;59.90;;;;;;4974542;28;20026;-63
2021/01/22 12:45:18;;;;;;;7.30;1.70;;;17.40;59.80;;;;;;4974998;28;20046;-62
2021/01/22 12:47:44;;;;;;;5.80;2.15;;;17.40;60.40;;;;;;4975015;28;20074;-61
2021/01/22 12:50:10;;;;;;;5.90;2.20;;;17.30;60.70;;;;;;4957300;28;20436;-62
2021/01/22 12:52:36;;;;;;;7.82;2.20;;;17.30;60.40;;;;;;4974714;28;20038;-61
2021/01/22 12:55:01;;;;;;;16.52;2.63;;;17.20;60.50;;;;;;4985602;28;20396;-63
2021/01/22 12:57:27;;;;;;;10.18;2.13;;;17.30;60.60;;;;;;4994264;28;20038;-60
2021/01/22 12:59:52;;;;;;;10.07;2.63;;;17.40;60.60;;;;;;4953579;28;20027;-60
2021/01/22 13:02:18;;;;;;;9.15;2.08;;;17.60;60.00;;;;;;4967954;28;20611;-60